Garrattsville, New York
Current Conditions -  °F | °C
As of 12:53 PM on Tuesday 21 Oct 2014 (Local Time) from KRME Reporting Station
Overcast Overcast  
Wind Chill: 52°   Ceiling: 4500
Heat Index: 52°   Visibility: 10mi
Dew Point: 46°   Wind: 8mph
Humidity: 80%   Direction: 100°E
Pressure: 29.9"   Gusts: NA
Location:  42.65°N, 75.17°W
Report Text: KRME 211653Z 10007KT 080V140 10SM OVC045 11/08 A2990 RMK AO2 SLP124 T01110078
Loading
Personal Weather Stations






























Interactive Weather Map
Tropical Storm Tracking
New forecast layout! Learn more

10-Day Weather Forecast

Advertisements
Track Severe Weather on mobile